Morning Lady — 3FKC3 — position and weather

sailwx.info

Track history (hours):
 
Tides and Currents Weather Stations Pressure Air Temp Water Temp Dewpoint Dewpoint Depression Visibility Wind Speed Wind Dir Waves Ship Positions

Morning Lady

Last reported at 2015-Jul-28 17:33 UTC. Time now 2015-Aug-04 05:24 UTC.
Position N 02°51' E 100°59'.

Length 234 m; draft 9.8 m.

Type: Ship. MMSI: 356473000.

Date/timePositionNaut miles runAvg speedWind from/ knotsBaromVisibWave heightAir tempDewpointWater temp
2015-Jul-28 17:33N 02°51' E 100°59'1919.2
2015-Jul-28 16:33N 02°42' E 101°16'4019.9
2015-Jul-28 14:33N 02°19' E 101°49'13319.0
2015-Jul-28 07:33N 01°10' E 103°42'1616.6
2015-Jul-28 06:33N 01°15' E 103°58'2 0.1
2015-Jul-27 15:10N 01°17' E 103°58'0 0.1
2015-Jul-27 14:22N 01°17' E 103°58'1 0.2
2015-Jul-27 10:33N 01°16' E 103°57'  
2015-Jul-23 16:23N 22°01' E 119°04'1417.3
2015-Jul-23 15:33N 22°13' E 119°12'1717.3
2015-Jul-23 14:34N 22°28' E 119°21'3517.2
2015-Jul-23 12:33N 22°57' E 119°41'  
Track history (hours):
 
Tides and Currents Weather Stations Pressure Air Temp Water Temp Dewpoint Dewpoint Depression Visibility Wind Speed Wind Dir Waves Ship Positions

Morning Lady

Last reported at 2015-Jul-28 17:33 UTC. Time now 2015-Aug-04 05:24 UTC.
Position N 02°51' E 100°59'.

Length 234 m; draft 9.8 m.

Type: Ship. MMSI: 356473000.

Date/timePositionNaut miles runAvg speedWind from/ knotsBaromVisibWave heightAir tempDewpointWater temp
2015-Jul-28 17:33N 02°51' E 100°59'1919.2
2015-Jul-28 16:33N 02°42' E 101°16'4019.9
2015-Jul-28 14:33N 02°19' E 101°49'13319.0
2015-Jul-28 07:33N 01°10' E 103°42'1616.6
2015-Jul-28 06:33N 01°15' E 103°58'2 0.1
2015-Jul-27 15:10N 01°17' E 103°58'0 0.1
2015-Jul-27 14:22N 01°17' E 103°58'1 0.2
2015-Jul-27 10:33N 01°16' E 103°57'  
2015-Jul-23 16:23N 22°01' E 119°04'1417.3
2015-Jul-23 15:33N 22°13' E 119°12'1717.3
2015-Jul-23 14:34N 22°28' E 119°21'3517.2
2015-Jul-23 12:33N 22°57' E 119°41'  

Dump ship's entire track history